VLG3ME LECO-LEPA
Flight info
| Callsign | VLG3ME |
|---|---|
| Flight time | 1h 25m |
| Altitude | 37000 |
| Route | FORNO DCT DESAT DCT ZMR DCT PDT/N0435F360 M871 LASPO/N0393F260 M871 GODOX |
| Aircraft | A320/M-SDE3FGHIRWY/LB1 |
Departure
| Time | 2026-05-08 14:04 |
|---|---|
| Airport | A Coruña Airport (LECO) |
Arrival
| Time | 2026-05-08 15:29 |
|---|---|
| Airport | Palma de Mallorca Airport (LEPA) |
| Time | Latitude | Longitude | Altitude | Speed | Heading |
|---|---|---|---|---|---|
| 2026-05-08 13:39 | 43.30203 | -8.38034 | 310 ft | 0 kts | 23° |
| 2026-05-08 13:57 | 43.30205 | -8.38032 | 309 ft | 0 kts | 40° |
| 2026-05-08 13:57 | 43.30205 | -8.38031 | 309 ft | 0 kts | 44° |
| 2026-05-08 13:58 | 43.30206 | -8.38029 | 309 ft | 0 kts | 73° |
| 2026-05-08 13:58 | 43.30210 | -8.38013 | 309 ft | 1 kts | 24° |
| 2026-05-08 13:58 | 43.30225 | -8.38005 | 308 ft | 4 kts | 21° |
| 2026-05-08 13:58 | 43.30255 | -8.37965 | 307 ft | 7 kts | 58° |
| 2026-05-08 13:59 | 43.30268 | -8.37879 | 305 ft | 10 kts | 105° |
| 2026-05-08 13:59 | 43.30230 | -8.37777 | 304 ft | 13 kts | 112° |
| 2026-05-08 13:59 | 43.30273 | -8.37670 | 301 ft | 15 kts | 32° |
| 2026-05-08 13:59 | 43.30376 | -8.37586 | 296 ft | 19 kts | 30° |
| 2026-05-08 14:00 | 43.30500 | -8.37486 | 290 ft | 21 kts | 32° |
| 2026-05-08 14:00 | 43.30636 | -8.37372 | 284 ft | 23 kts | 31° |
| 2026-05-08 14:00 | 43.30786 | -8.37251 | 279 ft | 25 kts | 31° |
| 2026-05-08 14:00 | 43.30898 | -8.37190 | 275 ft | 16 kts | 3° |
| 2026-05-08 14:01 | 43.30953 | -8.37183 | 275 ft | 0 kts | 22° |
| 2026-05-08 14:02 | 43.30955 | -8.37182 | 275 ft | 1 kts | 23° |
| 2026-05-08 14:02 | 43.30959 | -8.37173 | 274 ft | 1 kts | 98° |
| 2026-05-08 14:02 | 43.30945 | -8.37155 | 275 ft | 3 kts | 149° |
| 2026-05-08 14:03 | 43.30921 | -8.37148 | 275 ft | 4 kts | 185° |
| 2026-05-08 14:03 | 43.30888 | -8.37167 | 276 ft | 5 kts | 209° |
| 2026-05-08 14:03 | 43.30848 | -8.37199 | 277 ft | 18 kts | 211° |
| 2026-05-08 14:03 | 43.30481 | -8.37503 | 291 ft | 102 kts | 211° |
| 2026-05-08 14:04 | 43.29668 | -8.38166 | 434 ft | 156 kts | 212° |
| 2026-05-08 14:04 | 43.28634 | -8.39002 | 1161 ft | 165 kts | 208° |
| 2026-05-08 14:04 | 43.27502 | -8.39453 | 2130 ft | 164 kts | 178° |
| 2026-05-08 14:04 | 43.26437 | -8.38745 | 2793 ft | 171 kts | 130° |
| 2026-05-08 14:05 | 43.25916 | -8.37092 | 3319 ft | 188 kts | 110° |
| 2026-05-08 14:05 | 43.25427 | -8.35231 | 3856 ft | 202 kts | 117° |
| 2026-05-08 14:05 | 43.24645 | -8.33292 | 4338 ft | 224 kts | 127° |
| 2026-05-08 14:05 | 43.23693 | -8.31372 | 5267 ft | 226 kts | 121° |
| 2026-05-08 14:06 | 43.23327 | -8.29262 | 6133 ft | 233 kts | 88° |
| 2026-05-08 14:06 | 43.23708 | -8.26981 | 7002 ft | 237 kts | 76° |
| 2026-05-08 14:06 | 43.24209 | -8.24686 | 7823 ft | 241 kts | 78° |
| 2026-05-08 14:06 | 43.24617 | -8.22329 | 8646 ft | 243 kts | 82° |
| 2026-05-08 14:07 | 43.24931 | -8.19907 | 9442 ft | 244 kts | 90° |
| 2026-05-08 14:07 | 43.24646 | -8.17617 | 10154 ft | 235 kts | 124° |
| 2026-05-08 14:07 | 43.23451 | -8.15930 | 10716 ft | 238 kts | 150° |
| 2026-05-08 14:07 | 43.21913 | -8.14612 | 11130 ft | 255 kts | 150° |
| 2026-05-08 14:08 | 43.20282 | -8.13193 | 11514 ft | 273 kts | 149° |
| 2026-05-08 14:08 | 43.18533 | -8.11650 | 11871 ft | 291 kts | 149° |
| 2026-05-08 14:08 | 43.16649 | -8.09975 | 12288 ft | 306 kts | 149° |
| 2026-05-08 14:08 | 43.14764 | -8.08293 | 12963 ft | 312 kts | 149° |
| 2026-05-08 14:09 | 43.12857 | -8.06586 | 13706 ft | 314 kts | 149° |
| 2026-05-08 14:09 | 43.11034 | -8.04956 | 14371 ft | 317 kts | 148° |
| 2026-05-08 14:09 | 43.09125 | -8.03249 | 15034 ft | 320 kts | 148° |
| 2026-05-08 14:09 | 43.07195 | -8.01524 | 15679 ft | 324 kts | 148° |
| 2026-05-08 14:10 | 43.05248 | -7.99785 | 16322 ft | 326 kts | 148° |
| 2026-05-08 14:10 | 43.03275 | -7.98023 | 16955 ft | 329 kts | 148° |
| 2026-05-08 14:10 | 43.01312 | -7.96270 | 17546 ft | 332 kts | 148° |
| 2026-05-08 14:10 | 42.99384 | -7.94548 | 18100 ft | 335 kts | 148° |
| 2026-05-08 14:11 | 42.97406 | -7.92787 | 18672 ft | 338 kts | 148° |
| 2026-05-08 14:11 | 42.95440 | -7.91036 | 19222 ft | 341 kts | 148° |
| 2026-05-08 14:11 | 42.93449 | -7.89260 | 19744 ft | 344 kts | 148° |
| 2026-05-08 14:11 | 42.91373 | -7.87413 | 20282 ft | 347 kts | 148° |
| 2026-05-08 14:12 | 42.89320 | -7.85588 | 20813 ft | 350 kts | 148° |
| 2026-05-08 14:12 | 42.87254 | -7.83755 | 21327 ft | 353 kts | 148° |
| 2026-05-08 14:12 | 42.85175 | -7.81914 | 21827 ft | 356 kts | 148° |
| 2026-05-08 14:12 | 42.83061 | -7.80040 | 22328 ft | 359 kts | 148° |
| 2026-05-08 14:13 | 42.80907 | -7.78132 | 22831 ft | 362 kts | 148° |
| 2026-05-08 14:13 | 42.78766 | -7.76237 | 23307 ft | 364 kts | 149° |
| 2026-05-08 14:13 | 42.76557 | -7.74285 | 23770 ft | 368 kts | 149° |
| 2026-05-08 14:13 | 42.74376 | -7.72358 | 24206 ft | 371 kts | 149° |
| 2026-05-08 14:14 | 42.72181 | -7.70422 | 24648 ft | 374 kts | 149° |
| 2026-05-08 14:14 | 42.69934 | -7.68442 | 25093 ft | 376 kts | 149° |
| 2026-05-08 14:14 | 42.67688 | -7.66464 | 25544 ft | 378 kts | 149° |
| 2026-05-08 14:14 | 42.65374 | -7.64425 | 25979 ft | 381 kts | 149° |
| 2026-05-08 14:15 | 42.63071 | -7.62399 | 26378 ft | 384 kts | 149° |
| 2026-05-08 14:15 | 42.60741 | -7.60355 | 26789 ft | 386 kts | 149° |
| 2026-05-08 14:15 | 42.58448 | -7.58338 | 27197 ft | 388 kts | 150° |
| 2026-05-08 14:15 | 42.56150 | -7.56322 | 27562 ft | 390 kts | 150° |
| 2026-05-08 14:16 | 42.53848 | -7.54306 | 27922 ft | 393 kts | 150° |
| 2026-05-08 14:16 | 42.51422 | -7.52182 | 28305 ft | 395 kts | 150° |
| 2026-05-08 14:16 | 42.49100 | -7.49981 | 28652 ft | 400 kts | 145° |
| 2026-05-08 14:16 | 42.47010 | -7.47471 | 28985 ft | 406 kts | 139° |
| 2026-05-08 14:17 | 42.45124 | -7.44611 | 29319 ft | 411 kts | 132° |
| 2026-05-08 14:17 | 42.43425 | -7.41411 | 29647 ft | 415 kts | 128° |
| 2026-05-08 14:17 | 42.41814 | -7.38169 | 29943 ft | 418 kts | 128° |
| 2026-05-08 14:17 | 42.40176 | -7.34839 | 30224 ft | 421 kts | 129° |
| 2026-05-08 14:18 | 42.38547 | -7.31535 | 30494 ft | 424 kts | 129° |
| 2026-05-08 14:18 | 42.36909 | -7.28223 | 30765 ft | 426 kts | 129° |
| 2026-05-08 14:18 | 42.35256 | -7.24893 | 31026 ft | 427 kts | 129° |
| 2026-05-08 14:18 | 42.33573 | -7.21512 | 31293 ft | 429 kts | 129° |
| 2026-05-08 14:19 | 42.31872 | -7.18093 | 31542 ft | 431 kts | 129° |
| 2026-05-08 14:19 | 42.30160 | -7.14657 | 31741 ft | 434 kts | 129° |
| 2026-05-08 14:19 | 42.28428 | -7.11190 | 31957 ft | 437 kts | 129° |
| 2026-05-08 14:19 | 42.26683 | -7.07704 | 32244 ft | 437 kts | 129° |
| 2026-05-08 14:20 | 42.24971 | -7.04283 | 32578 ft | 436 kts | 129° |
| 2026-05-08 14:20 | 42.23288 | -7.00920 | 32897 ft | 436 kts | 130° |
| 2026-05-08 14:20 | 42.21577 | -6.97509 | 33162 ft | 436 kts | 130° |
| 2026-05-08 14:20 | 42.19868 | -6.94112 | 33432 ft | 437 kts | 130° |
| 2026-05-08 14:21 | 42.18160 | -6.90717 | 33709 ft | 437 kts | 130° |
| 2026-05-08 14:21 | 42.16468 | -6.87357 | 33972 ft | 437 kts | 130° |
| 2026-05-08 14:21 | 42.14763 | -6.83973 | 34235 ft | 437 kts | 130° |
| 2026-05-08 14:21 | 42.13043 | -6.80563 | 34465 ft | 437 kts | 130° |
| 2026-05-08 14:22 | 42.11350 | -6.77215 | 34666 ft | 438 kts | 130° |
| 2026-05-08 14:22 | 42.09629 | -6.73816 | 34828 ft | 439 kts | 129° |
| 2026-05-08 14:22 | 42.07900 | -6.70402 | 35031 ft | 439 kts | 129° |
| 2026-05-08 14:22 | 42.06186 | -6.67023 | 35224 ft | 439 kts | 129° |
| 2026-05-08 14:23 | 42.04453 | -6.63612 | 35377 ft | 440 kts | 129° |
| 2026-05-08 14:23 | 42.02748 | -6.60256 | 35530 ft | 442 kts | 129° |
| 2026-05-08 14:23 | 42.01011 | -6.56841 | 35678 ft | 443 kts | 129° |
| 2026-05-08 14:23 | 41.99275 | -6.53431 | 35860 ft | 443 kts | 129° |
| 2026-05-08 14:24 | 41.97520 | -6.49982 | 36079 ft | 443 kts | 129° |
| 2026-05-08 14:24 | 41.95785 | -6.46581 | 36293 ft | 443 kts | 129° |
| 2026-05-08 14:24 | 41.94055 | -6.43195 | 36475 ft | 444 kts | 129° |
| 2026-05-08 14:24 | 41.92294 | -6.39748 | 36658 ft | 445 kts | 129° |
| 2026-05-08 14:25 | 41.90554 | -6.36350 | 36822 ft | 446 kts | 129° |
| 2026-05-08 14:25 | 41.87028 | -6.29472 | 36863 ft | 447 kts | 129° |
| 2026-05-08 14:26 | 41.83498 | -6.22602 | 36868 ft | 447 kts | 129° |
| 2026-05-08 14:26 | 41.79988 | -6.15799 | 36874 ft | 448 kts | 129° |
| 2026-05-08 14:27 | 41.76412 | -6.08889 | 36878 ft | 454 kts | 129° |
| 2026-05-08 14:27 | 41.72800 | -6.01916 | 36873 ft | 459 kts | 129° |
| 2026-05-08 14:28 | 41.69184 | -5.94949 | 36869 ft | 459 kts | 129° |
| 2026-05-08 14:28 | 41.65528 | -5.87919 | 36869 ft | 459 kts | 129° |
| 2026-05-08 14:29 | 41.61875 | -5.80909 | 36869 ft | 460 kts | 129° |
| 2026-05-08 14:29 | 41.58221 | -5.73914 | 36873 ft | 460 kts | 129° |
| 2026-05-08 14:30 | 41.54578 | -5.66960 | 36874 ft | 460 kts | 129° |
| 2026-05-08 14:30 | 41.50884 | -5.59986 | 36874 ft | 460 kts | 130° |
| 2026-05-08 14:31 | 41.47145 | -5.53063 | 36870 ft | 460 kts | 130° |
| 2026-05-08 14:31 | 41.43407 | -5.46150 | 36869 ft | 460 kts | 130° |
| 2026-05-08 14:32 | 41.37790 | -5.35773 | 36872 ft | 462 kts | 130° |
| 2026-05-08 14:32 | 41.34045 | -5.28869 | 36872 ft | 462 kts | 131° |
| 2026-05-08 14:33 | 41.30293 | -5.21969 | 36873 ft | 462 kts | 131° |
| 2026-05-08 14:33 | 41.26503 | -5.15014 | 36875 ft | 463 kts | 131° |
| 2026-05-08 14:34 | 41.22729 | -5.08107 | 36878 ft | 462 kts | 131° |
| 2026-05-08 14:34 | 41.18974 | -5.01244 | 36878 ft | 463 kts | 131° |
| 2026-05-08 14:35 | 41.15183 | -4.94334 | 36884 ft | 462 kts | 131° |
| 2026-05-08 14:35 | 41.11399 | -4.87450 | 36883 ft | 462 kts | 131° |
| 2026-05-08 14:36 | 41.07601 | -4.80562 | 36888 ft | 463 kts | 131° |
| 2026-05-08 14:36 | 41.03810 | -4.73696 | 36894 ft | 464 kts | 131° |
| 2026-05-08 14:37 | 40.99984 | -4.66784 | 36890 ft | 464 kts | 131° |
| 2026-05-08 14:37 | 40.96170 | -4.59905 | 36890 ft | 464 kts | 131° |
| 2026-05-08 14:38 | 40.92360 | -4.53055 | 36897 ft | 464 kts | 131° |
| 2026-05-08 14:38 | 40.88537 | -4.46193 | 36898 ft | 465 kts | 131° |
| 2026-05-08 14:39 | 40.84713 | -4.39344 | 36900 ft | 465 kts | 131° |
| 2026-05-08 14:39 | 40.80894 | -4.32521 | 36900 ft | 464 kts | 131° |
| 2026-05-08 14:40 | 40.77049 | -4.25664 | 36912 ft | 466 kts | 132° |
| 2026-05-08 14:40 | 40.73189 | -4.18801 | 36903 ft | 466 kts | 131° |
| 2026-05-08 14:41 | 40.69333 | -4.11954 | 36941 ft | 466 kts | 132° |
| 2026-05-08 14:41 | 40.65459 | -4.05093 | 36922 ft | 467 kts | 132° |
| 2026-05-08 14:42 | 40.61604 | -3.98280 | 36920 ft | 466 kts | 132° |
| 2026-05-08 14:42 | 40.57717 | -3.91422 | 36932 ft | 467 kts | 133° |
| 2026-05-08 14:43 | 40.53825 | -3.84580 | 36918 ft | 468 kts | 132° |
| 2026-05-08 14:43 | 40.49923 | -3.77732 | 36922 ft | 468 kts | 132° |
| 2026-05-08 14:44 | 40.46025 | -3.70901 | 36916 ft | 468 kts | 133° |
| 2026-05-08 14:44 | 40.42131 | -3.64091 | 36918 ft | 469 kts | 133° |
| 2026-05-08 14:45 | 40.38206 | -3.57244 | 36916 ft | 470 kts | 133° |
| 2026-05-08 14:45 | 40.34300 | -3.50441 | 36917 ft | 470 kts | 133° |
| 2026-05-08 14:46 | 40.30386 | -3.43596 | 36909 ft | 472 kts | 131° |
| 2026-05-08 14:46 | 40.26867 | -3.36267 | 36915 ft | 479 kts | 124° |
| 2026-05-08 14:47 | 40.24023 | -3.28305 | 36915 ft | 486 kts | 117° |
| 2026-05-08 14:47 | 40.21931 | -3.19869 | 36910 ft | 491 kts | 111° |
| 2026-05-08 14:48 | 40.20083 | -3.11320 | 36907 ft | 492 kts | 111° |
| 2026-05-08 14:48 | 40.18191 | -3.02729 | 36905 ft | 491 kts | 111° |
| 2026-05-08 14:49 | 40.16295 | -2.94199 | 36911 ft | 492 kts | 111° |
| 2026-05-08 14:49 | 40.14364 | -2.85571 | 36919 ft | 493 kts | 111° |
| 2026-05-08 14:50 | 40.12441 | -2.76995 | 36927 ft | 493 kts | 111° |
| 2026-05-08 14:50 | 40.10517 | -2.68458 | 36928 ft | 494 kts | 111° |
| 2026-05-08 14:51 | 40.08576 | -2.59870 | 36929 ft | 494 kts | 111° |
| 2026-05-08 14:51 | 40.06636 | -2.51325 | 36934 ft | 494 kts | 111° |
| 2026-05-08 14:52 | 40.03697 | -2.38438 | 36948 ft | 494 kts | 111° |
| 2026-05-08 14:53 | 40.01735 | -2.29875 | 36960 ft | 494 kts | 112° |
| 2026-05-08 14:53 | 39.99758 | -2.21275 | 36960 ft | 495 kts | 112° |
| 2026-05-08 14:54 | 39.97774 | -2.12696 | 36961 ft | 496 kts | 112° |
| 2026-05-08 14:54 | 39.95792 | -2.04161 | 36968 ft | 496 kts | 112° |
| 2026-05-08 14:55 | 39.93794 | -1.95579 | 36975 ft | 496 kts | 112° |
| 2026-05-08 14:55 | 39.91784 | -1.86968 | 36982 ft | 497 kts | 112° |
| 2026-05-08 14:56 | 39.89772 | -1.78404 | 36979 ft | 497 kts | 112° |
| 2026-05-08 14:56 | 39.87757 | -1.69837 | 36979 ft | 496 kts | 112° |
| 2026-05-08 14:57 | 39.85725 | -1.61243 | 36991 ft | 496 kts | 112° |
| 2026-05-08 14:57 | 39.83693 | -1.52674 | 36982 ft | 497 kts | 112° |
| 2026-05-08 14:58 | 39.81648 | -1.44074 | 36981 ft | 497 kts | 112° |
| 2026-05-08 14:58 | 39.79241 | -1.35811 | 36983 ft | 487 kts | 124° |
| 2026-05-08 14:59 | 39.75259 | -1.28884 | 36987 ft | 471 kts | 143° |
| 2026-05-08 14:59 | 39.70110 | -1.23902 | 36980 ft | 454 kts | 159° |
| 2026-05-08 14:59 | 39.67276 | -1.22133 | 36985 ft | 450 kts | 163° |
| 2026-05-08 15:00 | 39.61597 | -1.18663 | 36988 ft | 455 kts | 158° |
| 2026-05-08 15:00 | 39.56355 | -1.13878 | 36983 ft | 469 kts | 146° |
| 2026-05-08 15:01 | 39.51875 | -1.07615 | 36985 ft | 482 kts | 134° |
| 2026-05-08 15:01 | 39.48312 | -1.00141 | 37002 ft | 491 kts | 126° |
| 2026-05-08 15:02 | 39.45009 | -0.92417 | 36996 ft | 492 kts | 126° |
| 2026-05-08 15:02 | 39.41654 | -0.84717 | 37000 ft | 494 kts | 126° |
| 2026-05-08 15:03 | 39.38246 | -0.76985 | 36978 ft | 493 kts | 127° |
| 2026-05-08 15:03 | 39.34800 | -0.69211 | 36981 ft | 494 kts | 127° |
| 2026-05-08 15:04 | 39.31489 | -0.61190 | 36965 ft | 499 kts | 120° |
| 2026-05-08 15:04 | 39.29351 | -0.52410 | 36958 ft | 512 kts | 105° |
| 2026-05-08 15:05 | 39.28735 | -0.43274 | 36955 ft | 519 kts | 91° |
| 2026-05-08 15:05 | 39.29211 | -0.33927 | 36946 ft | 522 kts | 88° |
| 2026-05-08 15:06 | 39.29785 | -0.24583 | 36951 ft | 520 kts | 89° |
| 2026-05-08 15:06 | 39.30297 | -0.15285 | 36936 ft | 519 kts | 89° |
| 2026-05-08 15:07 | 39.30772 | -0.06027 | 36917 ft | 518 kts | 89° |
| 2026-05-08 15:07 | 39.31006 | -0.01378 | 36500 ft | 515 kts | 89° |
| 2026-05-08 15:07 | 39.31237 | 0.03244 | 35722 ft | 517 kts | 89° |
| 2026-05-08 15:08 | 39.31465 | 0.07894 | 35018 ft | 520 kts | 89° |
| 2026-05-08 15:08 | 39.31616 | 0.10990 | 34547 ft | 522 kts | 88° |
| 2026-05-08 15:08 | 39.31917 | 0.17172 | 33565 ft | 524 kts | 88° |
| 2026-05-08 15:08 | 39.32148 | 0.21873 | 32846 ft | 521 kts | 88° |
| 2026-05-08 15:09 | 39.32374 | 0.26498 | 31878 ft | 514 kts | 88° |
| 2026-05-08 15:09 | 39.32595 | 0.31097 | 30544 ft | 510 kts | 88° |
| 2026-05-08 15:09 | 39.32807 | 0.35596 | 29657 ft | 493 kts | 88° |
| 2026-05-08 15:09 | 39.33012 | 0.39941 | 28855 ft | 477 kts | 88° |
| 2026-05-08 15:10 | 39.33215 | 0.44247 | 28159 ft | 465 kts | 89° |
| 2026-05-08 15:10 | 39.33408 | 0.48468 | 27613 ft | 461 kts | 89° |
| 2026-05-08 15:10 | 39.33596 | 0.52633 | 27075 ft | 457 kts | 89° |
| 2026-05-08 15:10 | 39.33780 | 0.56768 | 26539 ft | 454 kts | 89° |
| 2026-05-08 15:11 | 39.33967 | 0.60978 | 25998 ft | 450 kts | 89° |
| 2026-05-08 15:11 | 39.34148 | 0.65041 | 25471 ft | 447 kts | 89° |
| 2026-05-08 15:11 | 39.34331 | 0.69186 | 24923 ft | 443 kts | 89° |
| 2026-05-08 15:11 | 39.34505 | 0.73196 | 24395 ft | 440 kts | 89° |
| 2026-05-08 15:12 | 39.34683 | 0.77262 | 23854 ft | 436 kts | 90° |
| 2026-05-08 15:12 | 39.34850 | 0.81190 | 23331 ft | 433 kts | 90° |
| 2026-05-08 15:12 | 39.35014 | 0.85031 | 22814 ft | 429 kts | 89° |
| 2026-05-08 15:12 | 39.35180 | 0.88970 | 22282 ft | 426 kts | 89° |
| 2026-05-08 15:13 | 39.35342 | 0.92867 | 21755 ft | 424 kts | 90° |
| 2026-05-08 15:13 | 39.35506 | 0.96804 | 21221 ft | 421 kts | 89° |
| 2026-05-08 15:13 | 39.35661 | 1.00563 | 20710 ft | 419 kts | 89° |
| 2026-05-08 15:13 | 39.35818 | 1.04381 | 20191 ft | 416 kts | 89° |
| 2026-05-08 15:14 | 39.35976 | 1.08229 | 19666 ft | 414 kts | 89° |
| 2026-05-08 15:14 | 39.36128 | 1.12030 | 19146 ft | 412 kts | 89° |
| 2026-05-08 15:14 | 39.36275 | 1.15702 | 18645 ft | 410 kts | 89° |
| 2026-05-08 15:14 | 39.36421 | 1.19394 | 18136 ft | 408 kts | 89° |
| 2026-05-08 15:15 | 39.36575 | 1.23089 | 17640 ft | 406 kts | 88° |
| 2026-05-08 15:15 | 39.36857 | 1.26926 | 17123 ft | 404 kts | 85° |
| 2026-05-08 15:15 | 39.37175 | 1.30539 | 16632 ft | 403 kts | 85° |
| 2026-05-08 15:15 | 39.37501 | 1.34186 | 16133 ft | 400 kts | 85° |
| 2026-05-08 15:16 | 39.37812 | 1.37769 | 15642 ft | 398 kts | 85° |
| 2026-05-08 15:16 | 39.38121 | 1.41399 | 15140 ft | 396 kts | 85° |
| 2026-05-08 15:16 | 39.38422 | 1.44999 | 14639 ft | 394 kts | 85° |
| 2026-05-08 15:16 | 39.38731 | 1.48741 | 14117 ft | 392 kts | 85° |
| 2026-05-08 15:17 | 39.39029 | 1.52397 | 13606 ft | 391 kts | 85° |
| 2026-05-08 15:17 | 39.39320 | 1.55971 | 13100 ft | 389 kts | 85° |
| 2026-05-08 15:17 | 39.39606 | 1.59498 | 12600 ft | 387 kts | 85° |
| 2026-05-08 15:17 | 39.39888 | 1.62992 | 12099 ft | 384 kts | 85° |
| 2026-05-08 15:18 | 39.40168 | 1.66473 | 11597 ft | 382 kts | 86° |
| 2026-05-08 15:18 | 39.40446 | 1.69960 | 11173 ft | 376 kts | 86° |
| 2026-05-08 15:18 | 39.40719 | 1.73390 | 10790 ft | 370 kts | 86° |
| 2026-05-08 15:18 | 39.40987 | 1.76757 | 10412 ft | 364 kts | 86° |
| 2026-05-08 15:19 | 39.41243 | 1.80001 | 10038 ft | 359 kts | 86° |
| 2026-05-08 15:19 | 39.41495 | 1.83214 | 9664 ft | 354 kts | 86° |
| 2026-05-08 15:19 | 39.41748 | 1.86456 | 9283 ft | 349 kts | 86° |
| 2026-05-08 15:19 | 39.42001 | 1.89719 | 8894 ft | 344 kts | 86° |
| 2026-05-08 15:20 | 39.42247 | 1.92882 | 8509 ft | 340 kts | 86° |
| 2026-05-08 15:20 | 39.42487 | 1.95993 | 8126 ft | 335 kts | 86° |
| 2026-05-08 15:20 | 39.42726 | 1.99086 | 7741 ft | 331 kts | 86° |
| 2026-05-08 15:20 | 39.42960 | 2.02112 | 7365 ft | 328 kts | 85° |
| 2026-05-08 15:21 | 39.43187 | 2.05082 | 6988 ft | 325 kts | 85° |
| 2026-05-08 15:21 | 39.43410 | 2.07994 | 6611 ft | 322 kts | 85° |
| 2026-05-08 15:21 | 39.43636 | 2.10966 | 6227 ft | 319 kts | 85° |
| 2026-05-08 15:21 | 39.43858 | 2.13894 | 5845 ft | 316 kts | 85° |
| 2026-05-08 15:22 | 39.44074 | 2.16749 | 5470 ft | 314 kts | 85° |
| 2026-05-08 15:22 | 39.44286 | 2.19543 | 5099 ft | 311 kts | 85° |
| 2026-05-08 15:22 | 39.44499 | 2.22365 | 4722 ft | 309 kts | 85° |
| 2026-05-08 15:22 | 39.44707 | 2.25139 | 4347 ft | 307 kts | 85° |
| 2026-05-08 15:23 | 39.44912 | 2.27872 | 3975 ft | 304 kts | 84° |
| 2026-05-08 15:23 | 39.45115 | 2.30605 | 3602 ft | 301 kts | 85° |
| 2026-05-08 15:23 | 39.45309 | 2.33212 | 3232 ft | 291 kts | 84° |
| 2026-05-08 15:23 | 39.45501 | 2.35810 | 2974 ft | 285 kts | 84° |
| 2026-05-08 15:24 | 39.45686 | 2.38300 | 2961 ft | 270 kts | 84° |
| 2026-05-08 15:24 | 39.45858 | 2.40641 | 2959 ft | 256 kts | 84° |
| 2026-05-08 15:24 | 39.46025 | 2.42907 | 2961 ft | 245 kts | 84° |
| 2026-05-08 15:24 | 39.46184 | 2.45104 | 2960 ft | 245 kts | 84° |
| 2026-05-08 15:25 | 39.46347 | 2.47340 | 2839 ft | 246 kts | 84° |
| 2026-05-08 15:25 | 39.46507 | 2.49536 | 2713 ft | 245 kts | 84° |
| 2026-05-08 15:25 | 39.46666 | 2.51709 | 2590 ft | 244 kts | 84° |
| 2026-05-08 15:25 | 39.46913 | 2.53885 | 2462 ft | 243 kts | 75° |
| 2026-05-08 15:26 | 39.47527 | 2.55902 | 2337 ft | 237 kts | 63° |
| 2026-05-08 15:26 | 39.48358 | 2.57723 | 2209 ft | 230 kts | 58° |
| 2026-05-08 15:26 | 39.49203 | 2.59411 | 2044 ft | 217 kts | 58° |
| 2026-05-08 15:26 | 39.49969 | 2.60988 | 1760 ft | 198 kts | 59° |
| 2026-05-08 15:27 | 39.50646 | 2.62427 | 1605 ft | 177 kts | 60° |
| 2026-05-08 15:27 | 39.51271 | 2.63764 | 1354 ft | 167 kts | 59° |
| 2026-05-08 15:27 | 39.51861 | 2.65023 | 1106 ft | 159 kts | 59° |
| 2026-05-08 15:27 | 39.52424 | 2.66220 | 881 ft | 151 kts | 59° |
| 2026-05-08 15:28 | 39.52958 | 2.67351 | 680 ft | 143 kts | 59° |
| 2026-05-08 15:28 | 39.53464 | 2.68436 | 488 ft | 137 kts | 60° |
| 2026-05-08 15:28 | 39.53942 | 2.69490 | 330 ft | 136 kts | 59° |
| 2026-05-08 15:28 | 39.54440 | 2.70521 | 170 ft | 135 kts | 57° |
| 2026-05-08 15:29 | 39.54940 | 2.71558 | 21 ft | 132 kts | 57° |
| 2026-05-08 15:29 | 39.55302 | 2.72306 | 4 ft | 56 kts | 58° |
| 2026-05-08 15:29 | 39.55464 | 2.72658 | 8 ft | 24 kts | 64° |
| 2026-05-08 15:29 | 39.55492 | 2.72831 | 12 ft | 18 kts | 86° |
| 2026-05-08 15:30 | 39.55495 | 2.72937 | 13 ft | 0 kts | 89° |
| 2026-05-08 15:32 | 39.55496 | 2.72962 | 13 ft | 7 kts | 89° |
| 2026-05-08 15:32 | 39.55495 | 2.73046 | 14 ft | 9 kts | 103° |
| 2026-05-08 15:32 | 39.55437 | 2.73043 | 12 ft | 13 kts | 233° |
| 2026-05-08 15:33 | 39.55398 | 2.72963 | 12 ft | 0 kts | 238° |
| 2026-05-08 15:33 | 39.55395 | 2.72958 | 12 ft | 0 kts | 238° |
| 2026-05-08 15:33 | 39.55392 | 2.72956 | 12 ft | 1 kts | 200° |
| 2026-05-08 15:34 | 39.55360 | 2.72973 | 12 ft | 7 kts | 147° |
| 2026-05-08 15:34 | 39.55316 | 2.73012 | 12 ft | 8 kts | 142° |
| 2026-05-08 15:34 | 39.55278 | 2.73073 | 12 ft | 9 kts | 94° |
| 2026-05-08 15:34 | 39.55303 | 2.73156 | 13 ft | 10 kts | 59° |
| 2026-05-08 15:35 | 39.55345 | 2.73241 | 18 ft | 13 kts | 58° |
| 2026-05-08 15:35 | 39.55400 | 2.73358 | 24 ft | 15 kts | 58° |
| 2026-05-08 15:35 | 39.55460 | 2.73485 | 26 ft | 13 kts | 58° |
| 2026-05-08 15:35 | 39.55498 | 2.73566 | 24 ft | 8 kts | 72° |
| 2026-05-08 15:36 | 39.55468 | 2.73620 | 25 ft | 8 kts | 144° |
| 2026-05-08 15:36 | 39.55424 | 2.73655 | 30 ft | 11 kts | 149° |
| 2026-05-08 15:36 | 39.55320 | 2.73737 | 39 ft | 17 kts | 149° |
| 2026-05-08 15:36 | 39.55196 | 2.73834 | 44 ft | 24 kts | 148° |
| 2026-05-08 15:37 | 39.55044 | 2.73955 | 43 ft | 26 kts | 149° |
| 2026-05-08 15:37 | 39.54910 | 2.74062 | 38 ft | 20 kts | 149° |
| 2026-05-08 15:37 | 39.54818 | 2.74128 | 33 ft | 10 kts | 174° |
| 2026-05-08 15:37 | 39.54760 | 2.74068 | 35 ft | 11 kts | 237° |
| 2026-05-08 15:38 | 39.54717 | 2.73975 | 37 ft | 15 kts | 239° |
| 2026-05-08 15:38 | 39.54645 | 2.73823 | 37 ft | 21 kts | 238° |
| 2026-05-08 15:38 | 39.54563 | 2.73649 | 36 ft | 23 kts | 238° |
| 2026-05-08 15:38 | 39.54483 | 2.73481 | 40 ft | 20 kts | 239° |
| 2026-05-08 15:39 | 39.54417 | 2.73341 | 39 ft | 14 kts | 239° |
| 2026-05-08 15:39 | 39.54385 | 2.73249 | 37 ft | 9 kts | 282° |
| 2026-05-08 15:39 | 39.54427 | 2.73211 | 37 ft | 6 kts | 18° |
| 2026-05-08 15:39 | 39.54462 | 2.73260 | 37 ft | 6 kts | 59° |
| 2026-05-08 15:40 | 39.54492 | 2.73283 | 38 ft | 5 kts | 5° |
| 2026-05-08 15:40 | 39.54523 | 2.73277 | 37 ft | 2 kts | 348° |
| 2026-05-08 15:40 | 39.54532 | 2.73274 | 37 ft | 0 kts | 347° |